sensor_id;sensor_type;location;lat;lon;timestamp;P1;durP1;ratioP1;P2;durP2;ratioP2
49828;SDS011;35723;51.194;5.112;2023-10-13T00:01:56;19.92;;;6.97;;
49828;SDS011;35723;51.194;5.112;2023-10-13T00:04:29;22.05;;;7.60;;
49828;SDS011;35723;51.194;5.112;2023-10-13T00:06:57;17.88;;;7.35;;
49828;SDS011;35723;51.194;5.112;2023-10-13T00:09:24;21.20;;;7.05;;
49828;SDS011;35723;51.194;5.112;2023-10-13T00:11:57;20.25;;;7.30;;
49828;SDS011;35723;51.194;5.112;2023-10-13T00:14:23;21.42;;;7.13;;
49828;SDS011;35723;51.194;5.112;2023-10-13T00:16:57;17.77;;;7.45;;
49828;SDS011;35723;51.194;5.112;2023-10-13T00:19:32;15.77;;;6.78;;
49828;SDS011;35723;51.194;5.112;2023-10-13T00:22:09;18.02;;;6.95;;
49828;SDS011;35723;51.194;5.112;2023-10-13T00:24:39;18.90;;;7.82;;
49828;SDS011;35723;51.194;5.112;2023-10-13T00:27:10;18.63;;;7.82;;
49828;SDS011;35723;51.194;5.112;2023-10-13T00:29:50;21.70;;;8.55;;
49828;SDS011;35723;51.194;5.112;2023-10-13T00:32:16;21.35;;;8.35;;
49828;SDS011;35723;51.194;5.112;2023-10-13T00:34:48;19.17;;;8.38;;
49828;SDS011;35723;51.194;5.112;2023-10-13T00:37:20;21.42;;;9.18;;
49828;SDS011;35723;51.194;5.112;2023-10-13T00:39:52;22.98;;;8.77;;
49828;SDS011;35723;51.194;5.112;2023-10-13T00:42:21;22.05;;;9.80;;
49828;SDS011;35723;51.194;5.112;2023-10-13T00:44:50;22.95;;;9.70;;
49828;SDS011;35723;51.194;5.112;2023-10-13T00:47:19;19.90;;;9.38;;
49828;SDS011;35723;51.194;5.112;2023-10-13T00:50:01;19.88;;;8.52;;
49828;SDS011;35723;51.194;5.112;2023-10-13T00:52:28;22.92;;;10.52;;
49828;SDS011;35723;51.194;5.112;2023-10-13T00:54:55;27.65;;;11.65;;
49828;SDS011;35723;51.194;5.112;2023-10-13T00:57:24;23.73;;;10.20;;
49828;SDS011;35723;51.194;5.112;2023-10-13T00:59:57;25.02;;;10.75;;
49828;SDS011;35723;51.194;5.112;2023-10-13T01:02:23;25.33;;;11.75;;
49828;SDS011;35723;51.194;5.112;2023-10-13T01:05:01;24.42;;;11.77;;
49828;SDS011;35723;51.194;5.112;2023-10-13T01:07:28;29.08;;;13.98;;
49828;SDS011;35723;51.194;5.112;2023-10-13T01:09:53;23.88;;;12.48;;
49828;SDS011;35723;51.194;5.112;2023-10-13T01:12:20;31.95;;;14.05;;
49828;SDS011;35723;51.194;5.112;2023-10-13T01:14:48;29.63;;;14.30;;
49828;SDS011;35723;51.194;5.112;2023-10-13T01:17:15;28.13;;;13.60;;
49828;SDS011;35723;51.194;5.112;2023-10-13T01:19:41;29.85;;;15.10;;
49828;SDS011;35723;51.194;5.112;2023-10-13T01:22:11;30.17;;;16.08;;
49828;SDS011;35723;51.194;5.112;2023-10-13T01:24:36;27.73;;;14.82;;
49828;SDS011;35723;51.194;5.112;2023-10-13T01:27:03;28.90;;;14.80;;
49828;SDS011;35723;51.194;5.112;2023-10-13T01:29:50;30.98;;;16.02;;
49828;SDS011;35723;51.194;5.112;2023-10-13T01:32:21;29.52;;;15.23;;
49828;SDS011;35723;51.194;5.112;2023-10-13T01:34:48;29.08;;;14.82;;
49828;SDS011;35723;51.194;5.112;2023-10-13T01:37:15;34.08;;;16.38;;
49828;SDS011;35723;51.194;5.112;2023-10-13T01:39:41;31.80;;;15.93;;
49828;SDS011;35723;51.194;5.112;2023-10-13T01:42:07;31.30;;;15.93;;
49828;SDS011;35723;51.194;5.112;2023-10-13T01:44:33;31.02;;;17.10;;
49828;SDS011;35723;51.194;5.112;2023-10-13T01:46:59;34.13;;;17.75;;
49828;SDS011;35723;51.194;5.112;2023-10-13T01:49:31;33.50;;;17.37;;
49828;SDS011;35723;51.194;5.112;2023-10-13T01:52:15;34.33;;;17.85;;
49828;SDS011;35723;51.194;5.112;2023-10-13T01:54:41;37.47;;;18.83;;
49828;SDS011;35723;51.194;5.112;2023-10-13T01:57:10;34.13;;;18.30;;
49828;SDS011;35723;51.194;5.112;2023-10-13T01:59:42;33.63;;;18.08;;
49828;SDS011;35723;51.194;5.112;2023-10-13T02:02:13;34.67;;;17.15;;
49828;SDS011;35723;51.194;5.112;2023-10-13T02:04:42;32.22;;;17.50;;
49828;SDS011;35723;51.194;5.112;2023-10-13T02:07:21;34.75;;;18.30;;
49828;SDS011;35723;51.194;5.112;2023-10-13T02:09:51;31.00;;;16.98;;
49828;SDS011;35723;51.194;5.112;2023-10-13T02:12:19;34.67;;;17.75;;
49828;SDS011;35723;51.194;5.112;2023-10-13T02:14:51;38.17;;;18.65;;
49828;SDS011;35723;51.194;5.112;2023-10-13T02:17:16;34.78;;;18.40;;
49828;SDS011;35723;51.194;5.112;2023-10-13T02:19:46;35.97;;;17.98;;
49828;SDS011;35723;51.194;5.112;2023-10-13T02:22:12;33.45;;;18.00;;
49828;SDS011;35723;51.194;5.112;2023-10-13T02:24:50;34.78;;;16.98;;
49828;SDS011;35723;51.194;5.112;2023-10-13T02:27:17;34.88;;;17.25;;
49828;SDS011;35723;51.194;5.112;2023-10-13T02:29:49;31.65;;;16.45;;
49828;SDS011;35723;51.194;5.112;2023-10-13T02:32:15;31.25;;;15.45;;
49828;SDS011;35723;51.194;5.112;2023-10-13T02:34:47;34.65;;;16.70;;
49828;SDS011;35723;51.194;5.112;2023-10-13T02:37:12;31.92;;;17.00;;
49828;SDS011;35723;51.194;5.112;2023-10-13T02:39:39;38.35;;;17.30;;
49828;SDS011;35723;51.194;5.112;2023-10-13T02:42:08;30.42;;;16.48;;
49828;SDS011;35723;51.194;5.112;2023-10-13T02:44:41;28.23;;;15.73;;
49828;SDS011;35723;51.194;5.112;2023-10-13T02:47:11;31.00;;;15.85;;
49828;SDS011;35723;51.194;5.112;2023-10-13T02:49:39;31.73;;;16.08;;
49828;SDS011;35723;51.194;5.112;2023-10-13T02:52:08;28.00;;;15.48;;
49828;SDS011;35723;51.194;5.112;2023-10-13T02:54:35;30.83;;;14.77;;
49828;SDS011;35723;51.194;5.112;2023-10-13T02:57:15;26.67;;;14.23;;
49828;SDS011;35723;51.194;5.112;2023-10-13T02:59:42;29.48;;;14.57;;
49828;SDS011;35723;51.194;5.112;2023-10-13T03:02:23;30.55;;;15.18;;
49828;SDS011;35723;51.194;5.112;2023-10-13T03:04:50;30.30;;;15.50;;
49828;SDS011;35723;51.194;5.112;2023-10-13T03:07:34;34.10;;;15.77;;
49828;SDS011;35723;51.194;5.112;2023-10-13T03:10:01;34.58;;;16.48;;
49828;SDS011;35723;51.194;5.112;2023-10-13T03:12:37;32.85;;;16.17;;
49828;SDS011;35723;51.194;5.112;2023-10-13T03:15:04;32.42;;;16.15;;
49828;SDS011;35723;51.194;5.112;2023-10-13T03:17:51;31.70;;;15.52;;
49828;SDS011;35723;51.194;5.112;2023-10-13T03:20:20;34.95;;;15.38;;
49828;SDS011;35723;51.194;5.112;2023-10-13T03:22:55;31.20;;;15.93;;
49828;SDS011;35723;51.194;5.112;2023-10-13T03:25:21;30.65;;;15.85;;
49828;SDS011;35723;51.194;5.112;2023-10-13T03:28:02;30.88;;;15.95;;
49828;SDS011;35723;51.194;5.112;2023-10-13T03:30:30;32.53;;;16.35;;
49828;SDS011;35723;51.194;5.112;2023-10-13T03:33:07;31.63;;;15.68;;
49828;SDS011;35723;51.194;5.112;2023-10-13T03:35:50;32.35;;;15.43;;
49828;SDS011;35723;51.194;5.112;2023-10-13T03:38:19;31.02;;;15.95;;
49828;SDS011;35723;51.194;5.112;2023-10-13T03:40:49;31.83;;;14.93;;
49828;SDS011;35723;51.194;5.112;2023-10-13T03:43:31;25.95;;;13.55;;
49828;SDS011;35723;51.194;5.112;2023-10-13T03:45:57;33.25;;;15.25;;
49828;SDS011;35723;51.194;5.112;2023-10-13T03:48:26;33.15;;;14.68;;
49828;SDS011;35723;51.194;5.112;2023-10-13T03:51:00;31.55;;;14.57;;
49828;SDS011;35723;51.194;5.112;2023-10-13T03:56:05;35.30;;;13.82;;
49828;SDS011;35723;51.194;5.112;2023-10-13T03:58:39;27.13;;;13.25;;
49828;SDS011;35723;51.194;5.112;2023-10-13T04:01:11;30.98;;;13.63;;
49828;SDS011;35723;51.194;5.112;2023-10-13T04:03:40;36.20;;;15.68;;
49828;SDS011;35723;51.194;5.112;2023-10-13T04:06:22;29.83;;;13.75;;
49828;SDS011;35723;51.194;5.112;2023-10-13T04:09:08;29.75;;;14.00;;
49828;SDS011;35723;51.194;5.112;2023-10-13T04:11:58;29.15;;;14.00;;
49828;SDS011;35723;51.194;5.112;2023-10-13T04:14:28;33.97;;;14.65;;
49828;SDS011;35723;51.194;5.112;2023-10-13T04:17:13;30.52;;;14.27;;
49828;SDS011;35723;51.194;5.112;2023-10-13T04:19:47;28.02;;;14.13;;
49828;SDS011;35723;51.194;5.112;2023-10-13T04:22:37;30.77;;;13.57;;
49828;SDS011;35723;51.194;5.112;2023-10-13T04:25:13;30.23;;;14.10;;
49828;SDS011;35723;51.194;5.112;2023-10-13T04:28:06;30.67;;;13.43;;
49828;SDS011;35723;51.194;5.112;2023-10-13T04:30:56;34.58;;;13.45;;
49828;SDS011;35723;51.194;5.112;2023-10-13T04:33:26;28.13;;;12.90;;
49828;SDS011;35723;51.194;5.112;2023-10-13T04:36:02;29.55;;;12.15;;
49828;SDS011;35723;51.194;5.112;2023-10-13T04:38:45;28.63;;;12.40;;
49828;SDS011;35723;51.194;5.112;2023-10-13T04:41:30;26.48;;;11.80;;
49828;SDS011;35723;51.194;5.112;2023-10-13T04:44:23;31.45;;;11.68;;
49828;SDS011;35723;51.194;5.112;2023-10-13T04:46:55;25.77;;;11.60;;
49828;SDS011;35723;51.194;5.112;2023-10-13T04:49:25;26.23;;;11.68;;
49828;SDS011;35723;51.194;5.112;2023-10-13T04:52:14;25.15;;;11.02;;
49828;SDS011;35723;51.194;5.112;2023-10-13T04:54:59;25.35;;;9.90;;
49828;SDS011;35723;51.194;5.112;2023-10-13T04:57:35;26.00;;;10.15;;
49828;SDS011;35723;51.194;5.112;2023-10-13T05:00:15;22.88;;;9.02;;
49828;SDS011;35723;51.194;5.112;2023-10-13T05:02:45;24.85;;;9.50;;
49828;SDS011;35723;51.194;5.112;2023-10-13T05:05:27;23.35;;;9.40;;
49828;SDS011;35723;51.194;5.112;2023-10-13T05:08:12;24.75;;;9.07;;
49828;SDS011;35723;51.194;5.112;2023-10-13T05:10:56;21.95;;;9.07;;
49828;SDS011;35723;51.194;5.112;2023-10-13T05:13:41;22.85;;;8.88;;
49828;SDS011;35723;51.194;5.112;2023-10-13T05:16:24;28.25;;;9.68;;
49828;SDS011;35723;51.194;5.112;2023-10-13T05:19:08;21.95;;;8.68;;
49828;SDS011;35723;51.194;5.112;2023-10-13T05:21:52;23.73;;;8.40;;
49828;SDS011;35723;51.194;5.112;2023-10-13T05:24:36;22.23;;;7.95;;
49828;SDS011;35723;51.194;5.112;2023-10-13T05:27:20;28.30;;;8.43;;
49828;SDS011;35723;51.194;5.112;2023-10-13T05:30:04;22.63;;;8.20;;
49828;SDS011;35723;51.194;5.112;2023-10-13T05:32:49;25.60;;;8.20;;
49828;SDS011;35723;51.194;5.112;2023-10-13T05:35:33;21.40;;;7.82;;
49828;SDS011;35723;51.194;5.112;2023-10-13T05:38:17;29.00;;;8.32;;
49828;SDS011;35723;51.194;5.112;2023-10-13T05:41:05;24.38;;;7.45;;
49828;SDS011;35723;51.194;5.112;2023-10-13T05:43:49;19.92;;;7.47;;
49828;SDS011;35723;51.194;5.112;2023-10-13T05:46:34;23.80;;;7.68;;
49828;SDS011;35723;51.194;5.112;2023-10-13T05:49:13;24.98;;;8.27;;
49828;SDS011;35723;51.194;5.112;2023-10-13T05:51:42;18.25;;;7.22;;
49828;SDS011;35723;51.194;5.112;2023-10-13T05:54:09;17.73;;;6.88;;
49828;SDS011;35723;51.194;5.112;2023-10-13T05:56:42;22.20;;;7.25;;
49828;SDS011;35723;51.194;5.112;2023-10-13T05:59:27;26.05;;;7.28;;
49828;SDS011;35723;51.194;5.112;2023-10-13T06:02:16;22.48;;;7.30;;
49828;SDS011;35723;51.194;5.112;2023-10-13T06:05:04;24.05;;;7.75;;
49828;SDS011;35723;51.194;5.112;2023-10-13T06:07:50;24.30;;;8.02;;
49828;SDS011;35723;51.194;5.112;2023-10-13T06:10:34;28.33;;;7.47;;
49828;SDS011;35723;51.194;5.112;2023-10-13T06:13:19;26.40;;;7.80;;
49828;SDS011;35723;51.194;5.112;2023-10-13T06:16:05;23.58;;;7.63;;
49828;SDS011;35723;51.194;5.112;2023-10-13T06:18:53;25.48;;;7.68;;
49828;SDS011;35723;51.194;5.112;2023-10-13T06:21:38;24.15;;;6.85;;
49828;SDS011;35723;51.194;5.112;2023-10-13T06:24:22;24.95;;;7.18;;
49828;SDS011;35723;51.194;5.112;2023-10-13T06:27:06;23.10;;;7.43;;
49828;SDS011;35723;51.194;5.112;2023-10-13T06:29:50;22.95;;;6.97;;
49828;SDS011;35723;51.194;5.112;2023-10-13T06:32:18;24.52;;;7.53;;
49828;SDS011;35723;51.194;5.112;2023-10-13T06:34:44;26.13;;;7.35;;
49828;SDS011;35723;51.194;5.112;2023-10-13T06:37:14;26.95;;;7.93;;
49828;SDS011;35723;51.194;5.112;2023-10-13T06:39:49;24.40;;;7.53;;
49828;SDS011;35723;51.194;5.112;2023-10-13T06:42:15;24.70;;;7.43;;
49828;SDS011;35723;51.194;5.112;2023-10-13T06:44:43;22.52;;;7.40;;
49828;SDS011;35723;51.194;5.112;2023-10-13T06:47:11;23.33;;;7.35;;
49828;SDS011;35723;51.194;5.112;2023-10-13T06:49:37;25.20;;;7.40;;
49828;SDS011;35723;51.194;5.112;2023-10-13T06:52:08;25.45;;;7.53;;
49828;SDS011;35723;51.194;5.112;2023-10-13T06:54:34;24.15;;;7.00;;
49828;SDS011;35723;51.194;5.112;2023-10-13T06:57:00;28.23;;;7.47;;
49828;SDS011;35723;51.194;5.112;2023-10-13T06:59:29;26.20;;;7.32;;
49828;SDS011;35723;51.194;5.112;2023-10-13T07:01:58;26.65;;;7.63;;
49828;SDS011;35723;51.194;5.112;2023-10-13T07:04:30;30.00;;;7.72;;
49828;SDS011;35723;51.194;5.112;2023-10-13T07:06:55;26.83;;;7.53;;
49828;SDS011;35723;51.194;5.112;2023-10-13T07:09:21;25.80;;;7.32;;
49828;SDS011;35723;51.194;5.112;2023-10-13T07:12:04;25.05;;;7.30;;
49828;SDS011;35723;51.194;5.112;2023-10-13T07:14:34;24.42;;;7.70;;
49828;SDS011;35723;51.194;5.112;2023-10-13T07:17:05;22.42;;;7.40;;
49828;SDS011;35723;51.194;5.112;2023-10-13T07:19:33;28.70;;;7.65;;
49828;SDS011;35723;51.194;5.112;2023-10-13T07:22:00;29.77;;;7.30;;
49828;SDS011;35723;51.194;5.112;2023-10-13T07:24:45;21.55;;;6.80;;
49828;SDS011;35723;51.194;5.112;2023-10-13T07:27:15;27.98;;;8.02;;
49828;SDS011;35723;51.194;5.112;2023-10-13T07:32:20;24.90;;;6.90;;
49828;SDS011;35723;51.194;5.112;2023-10-13T07:34:49;25.23;;;7.22;;
49828;SDS011;35723;51.194;5.112;2023-10-13T07:37:15;26.17;;;7.53;;
49828;SDS011;35723;51.194;5.112;2023-10-13T07:39:41;25.58;;;7.07;;
49828;SDS011;35723;51.194;5.112;2023-10-13T07:42:09;26.08;;;6.68;;
49828;SDS011;35723;51.194;5.112;2023-10-13T07:44:44;25.90;;;7.25;;
49828;SDS011;35723;51.194;5.112;2023-10-13T07:47:13;23.80;;;7.25;;
49828;SDS011;35723;51.194;5.112;2023-10-13T07:49:39;28.25;;;7.05;;
49828;SDS011;35723;51.194;5.112;2023-10-13T07:52:09;27.25;;;6.97;;
49828;SDS011;35723;51.194;5.112;2023-10-13T07:54:45;30.85;;;7.05;;
49828;SDS011;35723;51.194;5.112;2023-10-13T07:57:17;24.98;;;7.13;;
49828;SDS011;35723;51.194;5.112;2023-10-13T07:59:43;24.33;;;7.05;;
49828;SDS011;35723;51.194;5.112;2023-10-13T08:02:15;28.40;;;7.75;;
49828;SDS011;35723;51.194;5.112;2023-10-13T08:04:58;26.60;;;7.45;;
49828;SDS011;35723;51.194;5.112;2023-10-13T08:07:24;26.02;;;7.53;;
49828;SDS011;35723;51.194;5.112;2023-10-13T08:09:53;23.05;;;6.68;;
49828;SDS011;35723;51.194;5.112;2023-10-13T08:12:19;23.90;;;6.72;;
49828;SDS011;35723;51.194;5.112;2023-10-13T08:14:48;25.80;;;7.80;;
49828;SDS011;35723;51.194;5.112;2023-10-13T08:17:13;25.77;;;6.63;;
49828;SDS011;35723;51.194;5.112;2023-10-13T08:19:39;25.52;;;7.43;;
49828;SDS011;35723;51.194;5.112;2023-10-13T08:22:07;26.58;;;7.20;;
49828;SDS011;35723;51.194;5.112;2023-10-13T08:24:59;21.15;;;6.78;;
49828;SDS011;35723;51.194;5.112;2023-10-13T08:27:45;21.45;;;6.60;;
49828;SDS011;35723;51.194;5.112;2023-10-13T08:30:30;28.73;;;7.78;;
49828;SDS011;35723;51.194;5.112;2023-10-13T08:32:57;25.23;;;7.63;;
49828;SDS011;35723;51.194;5.112;2023-10-13T08:35:24;29.23;;;7.65;;
49828;SDS011;35723;51.194;5.112;2023-10-13T08:38:00;27.30;;;7.03;;
49828;SDS011;35723;51.194;5.112;2023-10-13T08:40:29;29.90;;;7.13;;
49828;SDS011;35723;51.194;5.112;2023-10-13T08:43:14;29.38;;;7.60;;
49828;SDS011;35723;51.194;5.112;2023-10-13T08:45:42;27.88;;;7.65;;
49828;SDS011;35723;51.194;5.112;2023-10-13T08:48:09;23.20;;;7.28;;
49828;SDS011;35723;51.194;5.112;2023-10-13T08:50:42;22.90;;;6.68;;
49828;SDS011;35723;51.194;5.112;2023-10-13T08:58:47;21.63;;;7.28;;
49828;SDS011;35723;51.194;5.112;2023-10-13T09:01:20;24.33;;;7.38;;
49828;SDS011;35723;51.194;5.112;2023-10-13T09:04:00;23.77;;;7.20;;
49828;SDS011;35723;51.194;5.112;2023-10-13T09:06:50;26.30;;;7.25;;
49828;SDS011;35723;51.194;5.112;2023-10-13T09:09:48;26.42;;;7.10;;
49828;SDS011;35723;51.194;5.112;2023-10-13T09:12:21;26.45;;;7.40;;
49828;SDS011;35723;51.194;5.112;2023-10-13T09:20:29;29.92;;;7.60;;
49828;SDS011;35723;51.194;5.112;2023-10-13T09:23:14;27.23;;;7.28;;
49828;SDS011;35723;51.194;5.112;2023-10-13T09:25:50;22.23;;;7.20;;
49828;SDS011;35723;51.194;5.112;2023-10-13T09:30:56;31.20;;;7.07;;
49828;SDS011;35723;51.194;5.112;2023-10-13T09:33:29;26.13;;;7.45;;
49828;SDS011;35723;51.194;5.112;2023-10-13T09:36:20;25.77;;;7.20;;
49828;SDS011;35723;51.194;5.112;2023-10-13T09:38:46;31.63;;;7.47;;
49828;SDS011;35723;51.194;5.112;2023-10-13T09:41:14;25.88;;;7.45;;
49828;SDS011;35723;51.194;5.112;2023-10-13T09:43:52;22.60;;;7.13;;
49828;SDS011;35723;51.194;5.112;2023-10-13T09:46:21;25.92;;;6.97;;
49828;SDS011;35723;51.194;5.112;2023-10-13T09:48:53;31.45;;;7.30;;
49828;SDS011;35723;51.194;5.112;2023-10-13T09:51:39;27.42;;;7.10;;
49828;SDS011;35723;51.194;5.112;2023-10-13T09:54:24;25.98;;;7.35;;
49828;SDS011;35723;51.194;5.112;2023-10-13T09:57:13;21.80;;;7.38;;
49828;SDS011;35723;51.194;5.112;2023-10-13T09:59:55;28.60;;;7.70;;
49828;SDS011;35723;51.194;5.112;2023-10-13T10:02:32;22.88;;;7.65;;
49828;SDS011;35723;51.194;5.112;2023-10-13T10:04:59;24.90;;;7.28;;
49828;SDS011;35723;51.194;5.112;2023-10-13T10:07:56;36.03;;;7.43;;
49828;SDS011;35723;51.194;5.112;2023-10-13T10:13:35;27.88;;;7.22;;
49828;SDS011;35723;51.194;5.112;2023-10-13T10:16:12;27.10;;;7.43;;
49828;SDS011;35723;51.194;5.112;2023-10-13T10:18:44;26.92;;;7.53;;
49828;SDS011;35723;51.194;5.112;2023-10-13T10:21:10;27.90;;;7.55;;
49828;SDS011;35723;51.194;5.112;2023-10-13T10:23:36;29.17;;;7.60;;
49828;SDS011;35723;51.194;5.112;2023-10-13T10:26:15;26.60;;;7.60;;
49828;SDS011;35723;51.194;5.112;2023-10-13T10:28:48;22.55;;;7.68;;
49828;SDS011;35723;51.194;5.112;2023-10-13T10:31:15;24.67;;;8.13;;
49828;SDS011;35723;51.194;5.112;2023-10-13T10:33:45;30.95;;;7.65;;
49828;SDS011;35723;51.194;5.112;2023-10-13T10:36:28;28.45;;;7.30;;
49828;SDS011;35723;51.194;5.112;2023-10-13T10:38:57;22.50;;;7.50;;
49828;SDS011;35723;51.194;5.112;2023-10-13T10:41:30;25.60;;;7.83;;
49828;SDS011;35723;51.194;5.112;2023-10-13T10:44:19;21.08;;;7.15;;
49828;SDS011;35723;51.194;5.112;2023-10-13T10:47:09;27.73;;;7.65;;
49828;SDS011;35723;51.194;5.112;2023-10-13T10:49:38;22.73;;;7.03;;
49828;SDS011;35723;51.194;5.112;2023-10-13T10:52:05;32.60;;;8.18;;
49828;SDS011;35723;51.194;5.112;2023-10-13T10:54:39;32.33;;;7.75;;
49828;SDS011;35723;51.194;5.112;2023-10-13T10:57:09;20.90;;;7.22;;
49828;SDS011;35723;51.194;5.112;2023-10-13T10:59:42;25.40;;;7.38;;
49828;SDS011;35723;51.194;5.112;2023-10-13T11:02:08;21.65;;;7.05;;
49828;SDS011;35723;51.194;5.112;2023-10-13T11:04:40;25.92;;;7.65;;
49828;SDS011;35723;51.194;5.112;2023-10-13T11:07:20;25.55;;;7.60;;
49828;SDS011;35723;51.194;5.112;2023-10-13T11:09:49;32.85;;;7.38;;
49828;SDS011;35723;51.194;5.112;2023-10-13T11:12:18;29.40;;;7.80;;
49828;SDS011;35723;51.194;5.112;2023-10-13T11:17:30;29.15;;;7.63;;
49828;SDS011;35723;51.194;5.112;2023-10-13T11:20:10;24.20;;;7.35;;
49828;SDS011;35723;51.194;5.112;2023-10-13T11:22:50;29.58;;;8.13;;
49828;SDS011;35723;51.194;5.112;2023-10-13T11:25:35;27.20;;;7.00;;
49828;SDS011;35723;51.194;5.112;2023-10-13T11:28:15;27.33;;;7.55;;
49828;SDS011;35723;51.194;5.112;2023-10-13T11:30:43;30.00;;;7.45;;
49828;SDS011;35723;51.194;5.112;2023-10-13T11:33:14;31.95;;;7.38;;
49828;SDS011;35723;51.194;5.112;2023-10-13T11:35:44;27.38;;;7.18;;
49828;SDS011;35723;51.194;5.112;2023-10-13T11:38:19;29.38;;;7.32;;
49828;SDS011;35723;51.194;5.112;2023-10-13T11:41:02;33.03;;;7.35;;
49828;SDS011;35723;51.194;5.112;2023-10-13T11:43:38;28.45;;;7.28;;
49828;SDS011;35723;51.194;5.112;2023-10-13T11:46:08;28.55;;;7.22;;
49828;SDS011;35723;51.194;5.112;2023-10-13T11:48:34;23.50;;;7.15;;
49828;SDS011;35723;51.194;5.112;2023-10-13T11:51:03;34.50;;;7.53;;
49828;SDS011;35723;51.194;5.112;2023-10-13T11:53:36;27.35;;;7.43;;
49828;SDS011;35723;51.194;5.112;2023-10-13T11:56:03;31.98;;;6.82;;
49828;SDS011;35723;51.194;5.112;2023-10-13T11:58:34;29.08;;;7.20;;
49828;SDS011;35723;51.194;5.112;2023-10-13T12:01:00;26.33;;;7.22;;
49828;SDS011;35723;51.194;5.112;2023-10-13T12:03:45;27.65;;;7.15;;
49828;SDS011;35723;51.194;5.112;2023-10-13T12:06:31;29.38;;;7.80;;
49828;SDS011;35723;51.194;5.112;2023-10-13T12:09:00;27.45;;;6.90;;
49828;SDS011;35723;51.194;5.112;2023-10-13T12:11:48;29.00;;;7.47;;
49828;SDS011;35723;51.194;5.112;2023-10-13T12:14:19;31.27;;;7.65;;
49828;SDS011;35723;51.194;5.112;2023-10-13T12:16:55;30.30;;;7.97;;
49828;SDS011;35723;51.194;5.112;2023-10-13T12:19:24;30.80;;;7.68;;
49828;SDS011;35723;51.194;5.112;2023-10-13T12:21:52;29.92;;;7.50;;
49828;SDS011;35723;51.194;5.112;2023-10-13T12:24:24;27.67;;;7.38;;
49828;SDS011;35723;51.194;5.112;2023-10-13T12:27:04;28.50;;;6.97;;
49828;SDS011;35723;51.194;5.112;2023-10-13T12:29:50;30.73;;;7.43;;
49828;SDS011;35723;51.194;5.112;2023-10-13T12:32:17;32.88;;;7.38;;
49828;SDS011;35723;51.194;5.112;2023-10-13T12:34:55;34.40;;;7.50;;
49828;SDS011;35723;51.194;5.112;2023-10-13T12:37:24;23.20;;;6.72;;
49828;SDS011;35723;51.194;5.112;2023-10-13T12:43:03;27.83;;;6.63;;
49828;SDS011;35723;51.194;5.112;2023-10-13T12:45:49;27.27;;;8.48;;
49828;SDS011;35723;51.194;5.112;2023-10-13T12:48:34;32.50;;;7.18;;
49828;SDS011;35723;51.194;5.112;2023-10-13T12:51:20;28.20;;;6.75;;
49828;SDS011;35723;51.194;5.112;2023-10-13T12:54:06;27.70;;;7.30;;
49828;SDS011;35723;51.194;5.112;2023-10-13T12:56:45;28.67;;;7.50;;
49828;SDS011;35723;51.194;5.112;2023-10-13T12:59:11;29.42;;;7.22;;
49828;SDS011;35723;51.194;5.112;2023-10-13T13:01:40;27.08;;;6.80;;
49828;SDS011;35723;51.194;5.112;2023-10-13T13:04:09;28.02;;;6.70;;
49828;SDS011;35723;51.194;5.112;2023-10-13T13:06:50;31.05;;;6.88;;
49828;SDS011;35723;51.194;5.112;2023-10-13T13:09:16;23.95;;;6.75;;
49828;SDS011;35723;51.194;5.112;2023-10-13T13:11:51;23.27;;;6.28;;
49828;SDS011;35723;51.194;5.112;2023-10-13T13:14:22;28.65;;;7.35;;
49828;SDS011;35723;51.194;5.112;2023-10-13T13:16:54;25.17;;;6.18;;
49828;SDS011;35723;51.194;5.112;2023-10-13T13:19:29;27.63;;;6.57;;
49828;SDS011;35723;51.194;5.112;2023-10-13T13:21:59;31.88;;;6.88;;
49828;SDS011;35723;51.194;5.112;2023-10-13T13:24:24;29.20;;;6.82;;
49828;SDS011;35723;51.194;5.112;2023-10-13T13:26:54;25.10;;;6.40;;
49828;SDS011;35723;51.194;5.112;2023-10-13T13:29:33;25.20;;;6.25;;
49828;SDS011;35723;51.194;5.112;2023-10-13T13:32:00;26.65;;;5.97;;
49828;SDS011;35723;51.194;5.112;2023-10-13T13:34:25;27.27;;;6.32;;
49828;SDS011;35723;51.194;5.112;2023-10-13T13:36:51;26.08;;;5.90;;
49828;SDS011;35723;51.194;5.112;2023-10-13T13:39:19;27.58;;;6.57;;
49828;SDS011;35723;51.194;5.112;2023-10-13T13:41:54;22.38;;;6.32;;
49828;SDS011;35723;51.194;5.112;2023-10-13T13:44:22;27.70;;;6.15;;
49828;SDS011;35723;51.194;5.112;2023-10-13T13:47:00;24.00;;;5.95;;
49828;SDS011;35723;51.194;5.112;2023-10-13T13:49:30;28.13;;;6.32;;
49828;SDS011;35723;51.194;5.112;2023-10-13T13:52:05;22.45;;;5.72;;
49828;SDS011;35723;51.194;5.112;2023-10-13T13:54:31;22.60;;;6.65;;
49828;SDS011;35723;51.194;5.112;2023-10-13T13:56:57;21.00;;;6.47;;
49828;SDS011;35723;51.194;5.112;2023-10-13T13:59:23;24.17;;;6.15;;
49828;SDS011;35723;51.194;5.112;2023-10-13T14:01:48;26.98;;;6.10;;
49828;SDS011;35723;51.194;5.112;2023-10-13T14:04:14;29.98;;;6.28;;
49828;SDS011;35723;51.194;5.112;2023-10-13T14:06:42;28.05;;;5.72;;
49828;SDS011;35723;51.194;5.112;2023-10-13T14:09:10;22.10;;;6.00;;
49828;SDS011;35723;51.194;5.112;2023-10-13T14:11:55;25.33;;;6.85;;
49828;SDS011;35723;51.194;5.112;2023-10-13T14:14:39;24.92;;;6.20;;
49828;SDS011;35723;51.194;5.112;2023-10-13T14:17:12;24.40;;;6.00;;
49828;SDS011;35723;51.194;5.112;2023-10-13T14:19:38;20.98;;;5.65;;
49828;SDS011;35723;51.194;5.112;2023-10-13T14:22:05;22.50;;;6.18;;
49828;SDS011;35723;51.194;5.112;2023-10-13T14:24:37;24.92;;;6.03;;
49828;SDS011;35723;51.194;5.112;2023-10-13T14:27:08;21.88;;;5.97;;
49828;SDS011;35723;51.194;5.112;2023-10-13T14:29:40;24.00;;;6.13;;
49828;SDS011;35723;51.194;5.112;2023-10-13T14:32:11;22.50;;;5.97;;
49828;SDS011;35723;51.194;5.112;2023-10-13T14:34:42;19.35;;;5.60;;
49828;SDS011;35723;51.194;5.112;2023-10-13T14:37:08;25.00;;;6.28;;
49828;SDS011;35723;51.194;5.112;2023-10-13T14:39:40;18.83;;;5.68;;
49828;SDS011;35723;51.194;5.112;2023-10-13T14:42:06;26.63;;;5.95;;
49828;SDS011;35723;51.194;5.112;2023-10-13T14:44:32;19.55;;;6.18;;
49828;SDS011;35723;51.194;5.112;2023-10-13T14:46:59;17.88;;;5.32;;
49828;SDS011;35723;51.194;5.112;2023-10-13T14:49:25;24.30;;;5.63;;
49828;SDS011;35723;51.194;5.112;2023-10-13T14:51:50;23.08;;;5.97;;
49828;SDS011;35723;51.194;5.112;2023-10-13T14:54:17;25.00;;;6.10;;
49828;SDS011;35723;51.194;5.112;2023-10-13T14:56:50;26.15;;;5.90;;
49828;SDS011;35723;51.194;5.112;2023-10-13T14:59:19;21.85;;;6.03;;
49828;SDS011;35723;51.194;5.112;2023-10-13T15:01:47;22.77;;;5.63;;
49828;SDS011;35723;51.194;5.112;2023-10-13T15:04:14;22.38;;;6.00;;
49828;SDS011;35723;51.194;5.112;2023-10-13T15:06:39;32.45;;;6.45;;
49828;SDS011;35723;51.194;5.112;2023-10-13T15:09:05;19.83;;;6.43;;
49828;SDS011;35723;51.194;5.112;2023-10-13T15:11:36;24.13;;;5.38;;
49828;SDS011;35723;51.194;5.112;2023-10-13T15:14:02;24.38;;;6.32;;
49828;SDS011;35723;51.194;5.112;2023-10-13T15:16:29;23.00;;;5.63;;
49828;SDS011;35723;51.194;5.112;2023-10-13T15:18:54;21.38;;;5.35;;
49828;SDS011;35723;51.194;5.112;2023-10-13T15:21:27;25.50;;;6.05;;
49828;SDS011;35723;51.194;5.112;2023-10-13T15:23:57;24.23;;;6.30;;
49828;SDS011;35723;51.194;5.112;2023-10-13T15:26:32;23.52;;;6.07;;
49828;SDS011;35723;51.194;5.112;2023-10-13T15:29:03;22.38;;;5.70;;
49828;SDS011;35723;51.194;5.112;2023-10-13T15:31:34;28.58;;;6.72;;
49828;SDS011;35723;51.194;5.112;2023-10-13T15:34:03;19.10;;;5.68;;
49828;SDS011;35723;51.194;5.112;2023-10-13T15:36:40;23.50;;;6.13;;